createdAt,value
2018-11-10T00:00:56.230Z,12.55
2018-11-10T00:03:22.681Z,12.52
2018-11-10T00:05:49.080Z,12.47
2018-11-10T00:08:16.157Z,12.50
2018-11-10T00:10:42.570Z,12.46
2018-11-10T00:13:08.982Z,12.47
2018-11-10T00:15:35.462Z,12.46
2018-11-10T00:18:06.174Z,12.38
2018-11-10T00:20:33.302Z,12.38
2018-11-10T00:23:01.363Z,12.37
2018-11-10T00:25:33.147Z,12.28
2018-11-10T00:27:59.576Z,12.31
2018-11-10T01:01:04.296Z,12.06
2018-11-10T01:03:30.753Z,12.12
2018-11-10T01:05:57.272Z,12.17
2018-11-10T01:08:24.096Z,12.14
2018-11-10T01:29:43.366Z,11.96
2018-11-10T01:45:21.654Z,11.80
2018-11-10T01:48:24.737Z,11.79
2018-11-10T01:50:51.518Z,11.78
2018-11-10T02:12:29.434Z,12.08
2018-11-10T02:14:56.068Z,12.07
2018-11-10T02:17:22.765Z,12.14
2018-11-10T02:19:50.054Z,12.21
2018-11-10T02:26:17.351Z,12.25
2018-11-10T02:28:43.942Z,12.25
2018-11-10T02:31:10.351Z,12.27
2018-11-10T02:33:36.837Z,12.33
2018-11-10T02:36:04.702Z,12.34
2018-11-10T02:38:31.145Z,12.37
2018-11-10T02:40:57.576Z,12.39
2018-11-10T02:43:25.892Z,12.39
2018-11-10T02:45:52.609Z,12.47
2018-11-10T02:48:19.186Z,12.60
2018-11-10T02:50:45.719Z,12.67
2018-11-10T02:53:12.135Z,12.70
2018-11-10T02:55:38.700Z,12.69
2018-11-10T02:58:05.259Z,12.70
2018-11-10T03:00:31.662Z,12.74
2018-11-10T03:02:58.349Z,12.78
2018-11-10T03:05:24.759Z,12.84
2018-11-10T03:07:51.184Z,12.91
2018-11-10T03:10:17.907Z,12.92
2018-11-10T03:12:44.305Z,12.94
2018-11-10T03:22:24.979Z,13.00
2018-11-10T03:24:51.446Z,13.01
2018-11-10T03:27:18.005Z,12.99
2018-11-10T03:29:45.051Z,13.02
2018-11-10T03:32:11.482Z,13.03
2018-11-10T03:49:57.807Z,12.99
2018-11-10T03:52:24.310Z,13.02
2018-11-10T03:54:51.360Z,12.99
2018-11-10T03:57:17.794Z,12.94
2018-11-10T03:59:44.255Z,12.95
2018-11-10T04:02:11.580Z,12.96
2018-11-10T04:04:38.622Z,12.98
2018-11-10T04:07:05.059Z,13.01
2018-11-10T04:09:32.236Z,12.97
2018-11-10T04:11:58.733Z,13.08
2018-11-10T04:14:26.946Z,13.16
2018-11-10T04:16:53.450Z,13.23
2018-11-10T04:21:40.862Z,13.25
2018-11-10T04:24:07.657Z,13.26
2018-11-10T04:26:34.214Z,13.33
2018-11-10T04:40:50.253Z,13.42
2018-11-10T04:46:37.902Z,13.48
2018-11-10T05:32:14.514Z,13.79
2018-11-10T06:02:14.306Z,13.21
2018-11-10T06:04:42.147Z,13.11
2018-11-10T06:12:29.123Z,13.17
2018-11-10T06:14:55.580Z,13.11
2018-11-10T06:26:47.047Z,13.04
2018-11-10T06:33:44.265Z,12.91
2018-11-10T06:36:10.716Z,12.94
2018-11-10T06:54:58.203Z,12.50
2018-11-10T06:57:24.718Z,12.47
2018-11-10T06:59:51.482Z,12.50
2018-11-10T07:02:17.878Z,12.50
2018-11-10T07:04:44.391Z,12.48
2018-11-10T07:07:11.369Z,12.42
2018-11-10T07:09:37.825Z,12.41
2018-11-10T07:12:04.236Z,12.33
2018-11-10T07:14:30.921Z,12.38
2018-11-10T07:16:57.318Z,12.29
2018-11-10T07:19:24.368Z,12.25
2018-11-10T07:21:51.067Z,12.25
2018-11-10T07:24:17.477Z,12.27
2018-11-10T07:26:43.874Z,12.26
2018-11-10T07:29:10.577Z,12.26
2018-11-10T07:31:37.005Z,12.19
2018-11-10T07:34:08.020Z,12.22
2018-11-10T07:44:46.953Z,12.17
2018-11-10T07:47:15.038Z,12.24
2018-11-10T07:50:38.577Z,12.28
2018-11-10T07:56:21.003Z,12.29
2018-11-10T08:02:55.425Z,12.31
2018-11-10T08:05:21.959Z,12.29
2018-11-10T08:07:48.999Z,12.37
2018-11-10T08:10:15.417Z,12.39
2018-11-10T08:12:41.834Z,12.34
2018-11-10T08:15:08.547Z,12.41
2018-11-10T08:18:53.374Z,12.43
2018-11-10T08:21:23.043Z,12.46
2018-11-10T08:53:57.267Z,12.68
2018-11-10T09:12:59.265Z,12.78
2018-11-10T09:15:25.675Z,12.83
2018-11-10T09:17:52.484Z,12.78
2018-11-10T09:20:19.805Z,12.78
2018-11-10T09:55:32.189Z,12.97
2018-11-10T09:57:58.658Z,12.96
2018-11-10T10:00:25.399Z,13.00
2018-11-10T10:02:52.631Z,13.01
2018-11-10T10:05:20.236Z,13.04
2018-11-10T10:23:19.985Z,13.21
2018-11-10T11:38:01.276Z,13.60
2018-11-10T11:40:27.703Z,13.69
2018-11-10T11:42:54.648Z,13.78
2018-11-10T11:45:21.080Z,13.69
2018-11-10T12:27:50.648Z,13.28
2018-11-10T12:30:17.463Z,13.44
2018-11-10T12:42:27.510Z,13.49
2018-11-10T12:44:57.076Z,13.49
2018-11-10T12:47:23.515Z,13.53
2018-11-10T12:49:50.206Z,13.56
2018-11-10T12:52:17.248Z,13.60
2018-11-10T12:54:43.834Z,13.69
2018-11-10T12:57:10.559Z,13.79
2018-11-10T12:59:36.974Z,13.87
2018-11-10T13:02:03.382Z,14.01
2018-11-10T13:04:30.087Z,14.01
2018-11-10T13:06:56.511Z,13.92
2018-11-10T13:09:22.923Z,13.78
2018-11-10T13:11:49.730Z,13.75
2018-11-10T13:14:16.076Z,13.83
2018-11-10T13:16:42.486Z,13.87
2018-11-10T13:19:09.194Z,14.00
2018-11-10T13:21:35.640Z,13.92
2018-11-10T13:24:02.180Z,13.96
2018-11-10T13:26:29.655Z,13.81
2018-11-10T13:28:56.981Z,13.93
2018-11-10T13:31:23.509Z,13.91
2018-11-10T13:33:50.134Z,13.87
2018-11-10T13:36:16.566Z,13.85
2018-11-10T13:38:43.030Z,13.76
2018-11-10T13:41:09.839Z,13.72
2018-11-10T13:43:36.279Z,13.62
2018-11-10T13:46:05.222Z,13.65
2018-11-10T13:48:32.215Z,13.62
2018-11-10T13:50:58.865Z,13.67
2018-11-10T13:53:25.367Z,13.56
2018-11-10T13:55:55.249Z,13.50
2018-11-10T16:23:13.310Z,12.90
2018-11-10T16:25:39.770Z,12.97
2018-11-10T16:28:07.437Z,12.96
2018-11-10T16:30:34.079Z,13.11
2018-11-10T16:33:00.657Z,13.18
2018-11-10T16:35:27.523Z,13.28
2018-11-10T16:37:53.970Z,13.23
2018-11-10T16:40:20.486Z,13.21
2018-11-10T16:46:10.423Z,13.12
2018-11-10T16:48:37.287Z,13.20
2018-11-10T16:51:03.890Z,13.20
2018-11-10T16:57:35.473Z,13.20
2018-11-10T17:00:01.868Z,13.30
2018-11-10T17:02:28.664Z,13.35
2018-11-10T17:05:00.111Z,13.34
2018-11-10T17:07:26.670Z,13.31
2018-11-10T17:09:54.655Z,13.29
2018-11-10T17:54:20.344Z,13.31
2018-11-10T18:14:28.219Z,13.29
2018-11-10T18:49:04.305Z,13.25
2018-11-10T19:07:46.088Z,13.61
2018-11-10T19:10:13.356Z,13.62
2018-11-10T19:12:41.163Z,13.58
2018-11-10T19:15:09.225Z,13.57
2018-11-10T20:16:01.035Z,13.05
2018-11-10T20:36:30.418Z,12.87
2018-11-10T21:07:37.613Z,12.85
2018-11-10T21:10:04.110Z,12.87
2018-11-10T21:12:33.171Z,12.90
2018-11-10T21:18:41.843Z,12.86
2018-11-10T21:21:08.486Z,12.86
2018-11-10T21:23:35.692Z,12.87
2018-11-10T21:42:43.630Z,12.77
2018-11-10T22:04:59.752Z,12.79
2018-11-10T22:23:06.860Z,12.97
2018-11-10T22:25:33.814Z,12.94
2018-11-10T22:36:20.245Z,12.86
2018-11-10T22:38:46.758Z,12.86
2018-11-10T22:41:13.733Z,12.89
2018-11-10T22:43:40.855Z,12.87
2018-11-10T22:46:08.381Z,12.84
2018-11-10T22:48:37.212Z,12.88
